createdAt,value
2023-03-11T00:00:47.451Z,14.42
2023-03-11T00:03:16.994Z,14.43
2023-03-11T00:05:46.197Z,14.43
2023-03-11T00:08:21.296Z,14.44
2023-03-11T00:10:58.820Z,14.43
2023-03-11T00:13:28.900Z,14.43
2023-03-11T00:15:57.325Z,14.42
2023-03-11T00:18:31.818Z,14.41
2023-03-11T00:21:01.080Z,14.42
2023-03-11T00:23:29.726Z,14.42
2023-03-11T00:25:59.960Z,14.42
2023-03-11T00:28:28.373Z,14.43
2023-03-11T00:30:57.505Z,14.42
2023-03-11T00:33:25.963Z,14.42
2023-03-11T00:35:58.605Z,14.42
2023-03-11T00:38:27.586Z,14.41
2023-03-11T00:40:55.975Z,14.42
2023-03-11T00:43:24.227Z,14.41
2023-03-11T00:45:52.680Z,14.42
2023-03-11T00:48:23.665Z,14.42
2023-03-11T00:50:51.949Z,14.42
2023-03-11T00:53:24.884Z,14.43
2023-03-11T00:55:53.305Z,14.42
2023-03-11T00:58:23.848Z,14.42
2023-03-11T01:00:55.388Z,14.42
2023-03-11T01:03:24.011Z,14.42
2023-03-11T01:05:54.835Z,14.41
2023-03-11T01:08:24.274Z,14.42
2023-03-11T01:10:53.198Z,14.42
2023-03-11T01:13:21.933Z,14.42
2023-03-11T01:15:50.517Z,14.41
2023-03-11T01:18:18.545Z,14.42
2023-03-11T01:20:46.811Z,14.42
2023-03-11T01:23:15.404Z,14.42
2023-03-11T01:25:44.291Z,14.42
2023-03-11T01:28:12.972Z,14.42
2023-03-11T01:30:41.701Z,14.41
2023-03-11T01:33:15.011Z,14.41
2023-03-11T01:35:43.877Z,14.41
2023-03-11T01:38:11.904Z,14.41
2023-03-11T01:40:42.368Z,14.40
2023-03-11T01:43:55.348Z,14.40
2023-03-11T01:46:45.414Z,14.40
2023-03-11T01:49:13.833Z,14.38
2023-03-11T01:51:43.755Z,14.38
2023-03-11T01:54:19.370Z,14.38
2023-03-11T01:56:47.271Z,14.38
2023-03-11T01:59:22.708Z,14.38
2023-03-11T02:01:55.725Z,14.39
2023-03-11T02:04:24.540Z,14.38
2023-03-11T02:06:56.548Z,14.39
2023-03-11T02:09:27.198Z,14.38
2023-03-11T02:11:56.293Z,14.39
2023-03-11T02:14:24.943Z,14.38
2023-03-11T02:16:54.158Z,14.39
2023-03-11T02:19:31.021Z,14.40
2023-03-11T02:21:58.906Z,14.40
2023-03-11T02:24:59.499Z,14.40
2023-03-11T02:27:31.752Z,14.39
2023-03-11T02:30:01.116Z,14.37
2023-03-11T02:32:30.047Z,14.37
2023-03-11T02:34:58.181Z,14.34
2023-03-11T02:37:26.453Z,14.35
2023-03-11T02:40:18.383Z,14.37
2023-03-11T02:42:46.388Z,14.38
2023-03-11T02:45:15.589Z,14.36
2023-03-11T02:47:43.985Z,14.37
2023-03-11T02:50:15.670Z,14.37
2023-03-11T02:52:44.060Z,14.36
2023-03-11T02:55:12.194Z,14.37
2023-03-11T02:57:41.138Z,14.38
2023-03-11T03:00:15.858Z,14.37
2023-03-11T03:02:53.454Z,14.37
2023-03-11T03:05:22.015Z,14.37
2023-03-11T03:07:51.477Z,14.37
2023-03-11T03:10:20.890Z,14.37
2023-03-11T03:12:56.003Z,14.37
2023-03-11T03:15:25.893Z,14.38
2023-03-11T03:17:55.329Z,14.38
2023-03-11T03:20:30.379Z,14.38
2023-03-11T03:23:00.502Z,14.38
2023-03-11T03:28:19.930Z,14.22
2023-03-11T03:30:48.577Z,14.34
2023-03-11T03:33:18.727Z,14.35
2023-03-11T03:35:47.911Z,14.35
2023-03-11T03:38:22.495Z,14.34
2023-03-11T03:40:51.347Z,14.35
2023-03-11T03:43:21.061Z,14.35
2023-03-11T03:46:01.051Z,14.35
2023-03-11T03:48:31.902Z,14.35
2023-03-11T03:51:07.957Z,14.33
2023-03-11T03:53:36.493Z,14.32
2023-03-11T03:56:10.558Z,14.24
2023-03-11T03:58:39.340Z,14.25
2023-03-11T04:01:08.068Z,14.32
2023-03-11T04:03:38.239Z,14.32
2023-03-11T04:06:20.192Z,14.32
2023-03-11T04:08:51.342Z,14.31
2023-03-11T04:11:20.832Z,14.30
2023-03-11T04:13:49.664Z,14.30
2023-03-11T04:16:21.976Z,14.30
2023-03-11T04:18:50.993Z,14.30
2023-03-11T04:21:19.719Z,14.29
2023-03-11T04:23:53.263Z,14.29
2023-03-11T04:26:22.614Z,14.30
2023-03-11T04:28:50.545Z,14.29
2023-03-11T04:31:19.337Z,14.30
2023-03-11T04:33:50.206Z,14.31
2023-03-11T04:36:18.225Z,14.31
2023-03-11T04:38:46.775Z,14.31
2023-03-11T04:41:15.221Z,14.31
2023-03-11T04:43:43.624Z,14.30
2023-03-11T04:46:11.808Z,14.31
2023-03-11T04:48:41.534Z,14.32
2023-03-11T04:51:10.251Z,14.33
2023-03-11T04:53:39.296Z,14.33
2023-03-11T04:56:08.027Z,14.33
2023-03-11T04:58:37.791Z,14.33
2023-03-11T05:01:06.484Z,14.33
2023-03-11T05:03:34.685Z,14.34
2023-03-11T05:06:05.675Z,14.35
2023-03-11T05:08:33.920Z,14.35
2023-03-11T05:11:02.435Z,14.36
2023-03-11T05:13:34.349Z,14.36
2023-03-11T05:16:04.467Z,14.37
2023-03-11T05:18:33.018Z,14.38
2023-03-11T05:21:01.631Z,14.39
2023-03-11T05:23:31.930Z,14.40
2023-03-11T05:26:00.445Z,14.42
2023-03-11T05:28:29.438Z,14.50
2023-03-11T05:30:57.543Z,14.66
2023-03-11T05:33:25.985Z,14.85
2023-03-11T05:35:54.662Z,15.08
2023-03-11T05:38:22.791Z,15.34
2023-03-11T05:40:51.144Z,15.66
2023-03-11T05:43:19.307Z,15.97
2023-03-11T05:45:52.131Z,16.30
2023-03-11T05:48:20.198Z,16.52
2023-03-11T05:50:48.438Z,16.61
2023-03-11T05:53:17.125Z,16.60
2023-03-11T05:55:45.519Z,16.53
2023-03-11T05:58:14.566Z,16.40
2023-03-11T06:00:43.403Z,16.28
2023-03-11T06:03:19.308Z,16.14
2023-03-11T06:05:48.448Z,16.02
2023-03-11T06:08:16.757Z,15.89
2023-03-11T06:10:46.829Z,15.78
2023-03-11T06:13:18.134Z,15.69
2023-03-11T06:15:53.683Z,15.58
2023-03-11T06:18:28.487Z,15.51
2023-03-11T06:20:58.458Z,15.40
2023-03-11T06:23:27.112Z,15.33
2023-03-11T06:26:00.038Z,15.28
2023-03-11T06:28:29.487Z,15.22
2023-03-11T06:31:06.361Z,15.19
2023-03-11T06:33:34.865Z,15.16
2023-03-11T06:36:04.256Z,15.11
2023-03-11T06:38:38.792Z,15.13
2023-03-11T06:41:07.313Z,15.12
2023-03-11T06:43:36.239Z,15.10
2023-03-11T06:46:21.694Z,15.08
2023-03-11T06:48:53.622Z,15.08
2023-03-11T06:51:22.413Z,15.06
2023-03-11T06:53:52.565Z,15.06
2023-03-11T06:56:24.036Z,15.06
2023-03-11T06:59:02.261Z,15.06
2023-03-11T07:01:32.728Z,15.06
2023-03-11T07:04:02.379Z,15.08
2023-03-11T07:06:31.052Z,15.08
2023-03-11T07:09:04.936Z,15.09
2023-03-11T07:11:34.025Z,15.09
2023-03-11T07:14:08.051Z,15.09
2023-03-11T07:16:38.630Z,15.09
2023-03-11T07:19:10.617Z,15.09
2023-03-11T07:21:38.872Z,15.09
2023-03-11T07:24:07.439Z,15.09
2023-03-11T07:26:36.393Z,15.09
2023-03-11T07:29:04.716Z,15.08
2023-03-11T07:31:34.516Z,15.08
2023-03-11T07:34:05.932Z,15.08
2023-03-11T07:36:33.896Z,15.08
2023-03-11T07:39:04.422Z,15.07
2023-03-11T07:41:34.432Z,15.07
2023-03-11T07:44:06.173Z,15.06
2023-03-11T07:46:34.881Z,15.05
2023-03-11T07:49:03.978Z,15.05
2023-03-11T07:51:34.096Z,15.05
2023-03-11T07:54:02.228Z,15.05
2023-03-11T07:56:32.180Z,15.05
2023-03-11T07:59:00.895Z,15.05
2023-03-11T08:01:36.598Z,15.08
2023-03-11T08:04:06.014Z,15.09
2023-03-11T08:06:35.517Z,15.09
2023-03-11T08:09:05.954Z,15.09
2023-03-11T08:11:35.152Z,15.10
2023-03-11T08:14:03.513Z,15.10
2023-03-11T08:16:33.650Z,15.09
2023-03-11T08:19:01.926Z,15.09
2023-03-11T08:21:32.353Z,15.09
2023-03-11T08:24:01.481Z,15.08
2023-03-11T08:26:30.342Z,15.08
2023-03-11T08:29:01.076Z,15.09
2023-03-11T08:31:31.493Z,15.09
2023-03-11T08:34:02.685Z,15.09
2023-03-11T08:36:36.245Z,15.10
2023-03-11T08:39:04.726Z,15.11
2023-03-11T08:41:33.240Z,15.12
2023-03-11T08:44:01.481Z,15.13
2023-03-11T08:46:32.311Z,15.13
2023-03-11T08:49:01.359Z,15.14
2023-03-11T08:51:32.502Z,15.14
2023-03-11T08:54:02.386Z,15.12
2023-03-11T08:56:31.092Z,15.12
2023-03-11T08:58:59.633Z,15.12
2023-03-11T09:01:29.783Z,15.11
2023-03-11T09:03:58.080Z,15.09
2023-03-11T09:06:30.597Z,15.08
2023-03-11T09:09:01.239Z,15.06
2023-03-11T09:11:29.524Z,15.06
2023-03-11T09:14:02.122Z,15.05
2023-03-11T09:16:30.476Z,15.05
2023-03-11T09:19:00.490Z,15.05
2023-03-11T09:21:29.405Z,15.05
2023-03-11T09:23:57.549Z,15.06
2023-03-11T09:26:25.634Z,15.07
2023-03-11T09:28:53.826Z,15.08
2023-03-11T09:31:22.051Z,15.08
2023-03-11T09:33:52.298Z,15.08
2023-03-11T09:36:21.251Z,15.08
2023-03-11T09:38:49.332Z,15.07
2023-03-11T09:41:18.871Z,15.06
2023-03-11T09:43:56.048Z,15.05
2023-03-11T09:46:34.691Z,15.04
2023-03-11T09:49:21.584Z,15.02
2023-03-11T09:52:13.162Z,15.01
2023-03-11T09:54:49.713Z,14.99
2023-03-11T09:57:29.654Z,14.99
2023-03-11T09:59:57.969Z,14.98
2023-03-11T10:02:29.639Z,14.96
2023-03-11T10:05:09.877Z,14.97
2023-03-11T10:07:44.900Z,14.96
2023-03-11T10:10:14.023Z,14.95
2023-03-11T10:13:00.840Z,14.94
2023-03-11T10:15:49.056Z,14.92
2023-03-11T10:18:38.055Z,14.90
2023-03-11T10:21:41.950Z,14.89
2023-03-11T10:24:33.181Z,14.88
2023-03-11T10:27:20.196Z,14.86
2023-03-11T10:30:02.859Z,14.85
2023-03-11T10:32:41.384Z,14.85
2023-03-11T10:35:16.976Z,14.85
2023-03-11T10:37:59.793Z,14.84
2023-03-11T10:40:33.570Z,14.85
2023-03-11T10:43:10.025Z,14.83
2023-03-11T10:45:39.073Z,14.84
2023-03-11T10:48:14.911Z,14.80
2023-03-11T10:51:26.990Z,14.78
2023-03-11T10:53:59.088Z,14.80
2023-03-11T10:56:35.049Z,14.80
2023-03-11T10:59:04.610Z,14.80
2023-03-11T11:01:33.026Z,14.81
2023-03-11T11:04:01.345Z,14.83
2023-03-11T11:06:31.625Z,14.84
2023-03-11T11:09:23.653Z,14.84
2023-03-11T11:12:06.822Z,14.84
2023-03-11T11:14:46.655Z,14.84
2023-03-11T11:17:26.577Z,14.84
2023-03-11T11:19:55.188Z,14.85
2023-03-11T11:22:23.557Z,14.84
2023-03-11T11:24:56.223Z,14.85
2023-03-11T11:27:26.088Z,14.86
2023-03-11T11:30:15.866Z,14.86
2023-03-11T11:33:32.537Z,14.86
2023-03-11T11:36:03.306Z,14.85
2023-03-11T11:38:32.999Z,14.85
2023-03-11T11:41:03.172Z,14.84
2023-03-11T11:43:55.341Z,14.86
2023-03-11T11:46:35.072Z,14.87
2023-03-11T11:49:17.377Z,14.86
2023-03-11T11:51:58.787Z,14.86
2023-03-11T11:54:31.535Z,14.87
2023-03-11T11:57:00.182Z,14.87
2023-03-11T11:59:28.213Z,14.87
2023-03-11T12:02:24.847Z,14.88
2023-03-11T12:05:11.920Z,14.89
2023-03-11T12:07:55.445Z,14.88
2023-03-11T12:10:47.472Z,14.87
2023-03-11T12:13:35.700Z,14.87
2023-03-11T12:16:19.630Z,14.87
2023-03-11T12:18:50.663Z,14.83
2023-03-11T12:21:36.119Z,14.81
2023-03-11T12:24:26.235Z,14.83
2023-03-11T12:26:54.384Z,14.83
2023-03-11T12:29:34.370Z,14.83
2023-03-11T12:32:02.894Z,14.83
2023-03-11T12:34:31.432Z,14.84
2023-03-11T12:37:03.505Z,14.85
2023-03-11T12:39:35.295Z,14.85
2023-03-11T12:42:16.426Z,14.85
2023-03-11T12:44:45.338Z,14.86
2023-03-11T12:47:18.599Z,14.85
2023-03-11T12:49:48.913Z,14.86
2023-03-11T12:52:19.254Z,14.87
2023-03-11T12:55:08.603Z,14.87
2023-03-11T12:57:49.974Z,14.88
2023-03-11T13:00:39.038Z,14.88
2023-03-11T13:03:46.077Z,14.88
2023-03-11T13:06:26.556Z,14.88
2023-03-11T13:08:57.451Z,14.87
2023-03-11T13:11:31.815Z,14.87
2023-03-11T13:14:20.072Z,14.89
2023-03-11T13:16:48.700Z,14.89
2023-03-11T13:19:32.222Z,14.89
2023-03-11T13:22:01.821Z,14.89
2023-03-11T13:24:30.209Z,14.90
2023-03-11T13:27:09.963Z,14.90
2023-03-11T13:30:10.451Z,14.92
2023-03-11T13:32:55.089Z,14.91
2023-03-11T13:35:26.774Z,14.90
2023-03-11T13:38:17.710Z,14.90
2023-03-11T13:40:46.488Z,14.91
2023-03-11T13:43:16.205Z,14.92
2023-03-11T13:46:05.981Z,14.93
2023-03-11T13:48:45.126Z,14.95
2023-03-11T13:51:22.718Z,14.94
2023-03-11T13:53:56.721Z,14.94
2023-03-11T13:56:27.126Z,14.95
2023-03-11T13:59:15.762Z,14.96
2023-03-11T14:01:54.740Z,14.97
2023-03-11T14:04:33.503Z,14.97
2023-03-11T14:07:19.337Z,14.97
2023-03-11T14:09:50.382Z,14.98
2023-03-11T14:12:19.183Z,14.98
2023-03-11T14:14:56.368Z,14.98
2023-03-11T14:17:27.569Z,14.99
2023-03-11T14:20:04.776Z,15.00
2023-03-11T14:22:33.871Z,15.00
2023-03-11T14:25:08.709Z,15.00
2023-03-11T14:27:40.204Z,15.01
2023-03-11T14:30:17.423Z,15.01
2023-03-11T14:33:18.306Z,15.01
2023-03-11T14:35:53.695Z,15.02
2023-03-11T14:38:22.846Z,15.01
2023-03-11T14:40:55.100Z,15.01
2023-03-11T14:43:23.694Z,15.03
2023-03-11T14:45:52.727Z,15.03
2023-03-11T14:48:36.424Z,15.03
2023-03-11T14:51:07.397Z,15.03
2023-03-11T14:53:40.520Z,15.03
2023-03-11T14:56:22.015Z,15.04
2023-03-11T14:59:07.323Z,15.04
2023-03-11T15:01:41.081Z,15.02
2023-03-11T15:04:29.441Z,15.02
2023-03-11T15:06:57.512Z,15.02
2023-03-11T15:09:25.636Z,15.02
2023-03-11T15:11:59.216Z,15.02
2023-03-11T15:14:31.804Z,15.03
2023-03-11T15:17:42.601Z,15.01
2023-03-11T15:20:31.006Z,15.04
2023-03-11T15:23:03.880Z,15.02
2023-03-11T15:25:36.214Z,15.02
2023-03-11T15:28:25.308Z,15.03
2023-03-11T15:31:21.251Z,15.03
2023-03-11T15:33:49.815Z,15.03
2023-03-11T15:36:35.178Z,15.02
2023-03-11T15:39:11.430Z,15.03
2023-03-11T15:41:43.498Z,15.03
2023-03-11T15:45:38.477Z,14.88
2023-03-11T15:48:06.533Z,14.99
2023-03-11T15:50:50.569Z,15.00
2023-03-11T15:53:25.330Z,15.01
2023-03-11T15:55:54.122Z,15.01
2023-03-11T15:58:22.083Z,15.01
2023-03-11T16:00:56.039Z,15.02
2023-03-11T16:03:24.332Z,15.04
2023-03-11T16:05:53.612Z,15.02
2023-03-11T16:08:23.132Z,15.04
2023-03-11T16:10:51.351Z,15.05
2023-03-11T16:13:24.610Z,15.04
2023-03-11T16:15:53.177Z,15.04
2023-03-11T16:18:21.751Z,14.96
2023-03-11T16:20:53.499Z,14.93
2023-03-11T16:23:24.248Z,15.00
2023-03-11T16:25:57.162Z,15.01
2023-03-11T16:28:25.677Z,15.02
2023-03-11T16:30:53.677Z,15.01
2023-03-11T16:33:22.415Z,15.04
2023-03-11T16:35:50.651Z,15.04
2023-03-11T16:38:23.226Z,15.05
2023-03-11T16:40:57.907Z,15.05
2023-03-11T16:43:27.607Z,15.04
2023-03-11T16:45:56.375Z,15.05
2023-03-11T16:48:24.703Z,15.05
2023-03-11T16:50:53.821Z,15.06
2023-03-11T16:53:22.091Z,15.06
2023-03-11T16:55:50.465Z,15.07
2023-03-11T16:58:19.364Z,15.07
2023-03-11T17:00:47.533Z,15.08
2023-03-11T17:03:18.244Z,15.08
2023-03-11T17:05:49.314Z,15.08
2023-03-11T17:08:18.506Z,15.07
2023-03-11T17:10:46.902Z,15.08
2023-03-11T17:13:17.741Z,15.09
2023-03-11T17:15:58.932Z,15.10
2023-03-11T17:18:41.004Z,15.14
2023-03-11T17:21:10.652Z,15.12
2023-03-11T17:23:38.526Z,15.13
2023-03-11T17:26:15.966Z,15.14
2023-03-11T17:28:47.124Z,15.14
2023-03-11T17:31:16.288Z,15.10
2023-03-11T17:33:44.999Z,15.03
2023-03-11T17:36:16.049Z,15.00
2023-03-11T17:38:46.781Z,14.97
2023-03-11T17:41:16.983Z,14.95
2023-03-11T17:43:45.079Z,14.96
2023-03-11T17:46:15.536Z,14.94
2023-03-11T17:48:45.113Z,14.94
2023-03-11T17:51:19.653Z,14.91
2023-03-11T17:53:48.444Z,14.91
2023-03-11T17:56:22.011Z,14.91
2023-03-11T17:58:51.831Z,14.91
2023-03-11T18:01:24.963Z,14.90
2023-03-11T18:03:56.286Z,14.91
2023-03-11T18:06:24.736Z,14.91
2023-03-11T18:08:55.261Z,14.91
2023-03-11T18:11:27.027Z,14.91
2023-03-11T18:13:55.519Z,14.90
2023-03-11T18:16:25.801Z,14.90
2023-03-11T18:18:57.584Z,14.90
2023-03-11T18:21:28.062Z,14.90
2023-03-11T18:23:59.808Z,14.89
2023-03-11T18:26:28.935Z,14.90
2023-03-11T18:28:57.546Z,14.91
2023-03-11T18:31:26.703Z,14.91
2023-03-11T18:33:58.947Z,14.91
2023-03-11T18:36:28.926Z,14.92
2023-03-11T18:38:58.232Z,14.92
2023-03-11T18:41:26.855Z,14.94
2023-03-11T18:43:57.547Z,14.92
2023-03-11T18:46:28.477Z,14.93
2023-03-11T18:48:59.421Z,14.93
2023-03-11T18:51:28.699Z,14.94
2023-03-11T18:53:56.895Z,14.94
2023-03-11T18:56:24.965Z,14.95
2023-03-11T18:58:54.167Z,14.95
2023-03-11T19:01:22.237Z,14.93
2023-03-11T19:03:52.237Z,14.95
2023-03-11T19:06:20.350Z,14.95
2023-03-11T19:08:49.587Z,14.96
2023-03-11T19:11:20.165Z,14.76
2023-03-11T19:13:51.099Z,14.94
2023-03-11T19:16:21.631Z,14.95
2023-03-11T19:18:50.533Z,14.95
2023-03-11T19:21:19.030Z,14.95
2023-03-11T19:23:47.176Z,14.95
2023-03-11T19:26:15.034Z,14.95
2023-03-11T19:28:43.210Z,14.95
2023-03-11T19:31:11.421Z,14.95
2023-03-11T19:33:43.245Z,14.96
2023-03-11T19:36:12.509Z,14.94
2023-03-11T19:38:40.702Z,14.95
2023-03-11T19:41:18.710Z,14.94
2023-03-11T19:43:47.559Z,14.95
2023-03-11T19:46:18.272Z,14.94
2023-03-11T19:48:46.493Z,14.94
2023-03-11T19:51:14.509Z,14.94
2023-03-11T19:53:42.788Z,14.94
2023-03-11T19:56:17.295Z,14.94
2023-03-11T19:58:45.294Z,14.94
2023-03-11T20:01:16.115Z,14.93
2023-03-11T20:03:44.557Z,14.93
2023-03-11T20:06:16.397Z,14.93
2023-03-11T20:08:50.878Z,14.93
2023-03-11T20:11:20.707Z,14.92
2023-03-11T20:13:49.148Z,14.92
2023-03-11T20:16:18.931Z,14.94
2023-03-11T20:18:53.958Z,14.93
2023-03-11T20:21:22.066Z,14.92
2023-03-11T20:23:50.678Z,14.92
2023-03-11T20:26:19.413Z,14.91
2023-03-11T20:28:48.005Z,14.93
2023-03-11T20:31:19.790Z,14.93
2023-03-11T20:33:48.947Z,14.92
2023-03-11T20:36:21.175Z,14.92
2023-03-11T20:38:50.612Z,14.90
2023-03-11T20:41:19.254Z,14.91
2023-03-11T20:43:47.309Z,15.00
2023-03-11T20:46:16.702Z,15.01
2023-03-11T20:48:46.303Z,15.02
2023-03-11T20:51:16.506Z,15.03
2023-03-11T20:54:03.549Z,15.04
2023-03-11T20:56:32.217Z,15.04
2023-03-11T20:59:01.111Z,15.02
2023-03-11T21:01:30.411Z,15.02
2023-03-11T21:04:01.595Z,15.01
2023-03-11T21:06:38.424Z,15.01
2023-03-11T21:09:14.123Z,15.01
2023-03-11T21:11:42.405Z,15.00
2023-03-11T21:14:10.762Z,14.92
2023-03-11T21:16:42.805Z,14.90
2023-03-11T21:19:13.544Z,14.87
2023-03-11T21:21:41.805Z,14.87
2023-03-11T21:24:11.037Z,14.87
2023-03-11T21:26:39.645Z,14.87
2023-03-11T21:29:08.634Z,14.88
2023-03-11T21:31:36.774Z,14.87
2023-03-11T21:34:05.058Z,14.87
2023-03-11T21:36:38.363Z,14.86
2023-03-11T21:39:07.279Z,14.86
2023-03-11T21:41:35.476Z,14.86
2023-03-11T21:44:06.199Z,14.84
2023-03-11T21:46:34.236Z,14.85
2023-03-11T21:49:05.790Z,14.85
2023-03-11T21:51:35.459Z,14.86
2023-03-11T21:54:05.483Z,14.86
2023-03-11T21:56:35.217Z,14.86
2023-03-11T21:59:03.982Z,14.85
2023-03-11T22:01:35.260Z,14.85
2023-03-11T22:04:03.627Z,14.84
2023-03-11T22:06:33.444Z,14.85
2023-03-11T22:09:01.728Z,14.85
2023-03-11T22:11:31.604Z,14.85
2023-03-11T22:14:01.086Z,14.84
2023-03-11T22:16:30.424Z,14.84
2023-03-11T22:19:00.200Z,14.84
2023-03-11T22:21:28.289Z,14.84
2023-03-11T22:23:56.470Z,14.84
2023-03-11T22:26:24.365Z,14.82
2023-03-11T22:28:52.420Z,14.83
2023-03-11T22:31:20.611Z,14.89
2023-03-11T22:33:49.435Z,14.90
2023-03-11T22:36:17.354Z,14.91
2023-03-11T22:38:46.205Z,14.91
2023-03-11T22:41:19.387Z,14.91
2023-03-11T22:43:47.507Z,14.91
2023-03-11T22:46:15.539Z,14.91
2023-03-11T22:48:43.593Z,14.91
2023-03-11T22:51:15.083Z,14.92
2023-03-11T22:53:43.678Z,14.92
2023-03-11T22:56:13.733Z,14.92
2023-03-11T22:58:42.244Z,14.92
2023-03-11T23:01:10.453Z,14.90
2023-03-11T23:03:38.986Z,14.89
2023-03-11T23:06:08.560Z,14.90
2023-03-11T23:08:36.851Z,14.90
2023-03-11T23:11:08.345Z,14.89
2023-03-11T23:13:37.669Z,14.89
2023-03-11T23:16:07.455Z,14.88
2023-03-11T23:18:38.243Z,14.89
2023-03-11T23:21:24.038Z,14.87
2023-03-11T23:23:52.026Z,14.88
2023-03-11T23:26:20.397Z,14.86
2023-03-11T23:28:51.192Z,14.86
2023-03-11T23:31:20.427Z,14.84
2023-03-11T23:33:49.685Z,14.84
2023-03-11T23:36:19.985Z,14.84
2023-03-11T23:38:54.679Z,14.83
2023-03-11T23:41:23.829Z,14.83
2023-03-11T23:43:51.907Z,14.82
2023-03-11T23:46:20.147Z,14.82
2023-03-11T23:48:48.413Z,14.82
2023-03-11T23:51:16.417Z,14.81
2023-03-11T23:53:45.614Z,14.81
2023-03-11T23:56:17.143Z,14.81
2023-03-11T23:58:46.230Z,14.80
